createdAt,value
2022-11-25T09:00:35.771Z,15.07
2022-11-25T09:33:20.133Z,12.07
2022-11-25T09:55:17.325Z,10.30
2022-11-25T10:00:15.310Z,17.20
2022-11-25T10:05:16.854Z,10.77
2022-11-25T10:10:23.479Z,10.60
2022-11-25T10:15:24.718Z,9.57
2022-11-25T10:20:23.762Z,5.50
2022-11-25T10:25:22.064Z,8.63
2022-11-25T10:30:19.929Z,5.47
2022-11-25T10:35:28.335Z,5.40
2022-11-25T10:40:24.017Z,7.70
2022-11-25T10:45:17.782Z,3.47
2022-11-25T10:50:19.045Z,7.77
2022-11-25T10:55:15.564Z,5.17
2022-11-25T11:00:29.649Z,4.23
2022-11-25T11:05:25.896Z,4.07
2022-11-25T11:10:22.853Z,5.43
2022-11-25T11:15:22.202Z,3.87
2022-11-25T11:20:23.424Z,3.00
2022-11-25T11:25:29.193Z,5.37
2022-11-25T11:30:29.803Z,4.80
2022-11-25T11:35:29.488Z,3.25
2022-11-25T11:40:33.841Z,4.32
2022-11-25T11:45:44.801Z,3.47
2022-11-25T11:50:42.317Z,5.03
2022-11-25T11:56:19.039Z,1.92
2022-11-25T12:01:26.667Z,2.58
2022-11-25T12:06:22.816Z,3.13
2022-11-25T12:11:20.437Z,5.40
2022-11-25T12:16:22.020Z,2.75
2022-11-25T12:21:27.848Z,2.85
2022-11-25T12:26:25.941Z,3.70
2022-11-25T12:31:26.466Z,2.63
2022-11-25T12:36:27.904Z,2.80
2022-11-25T12:41:27.126Z,1.77
2022-11-25T12:46:27.041Z,2.00
2022-11-25T12:51:35.569Z,2.65
2022-11-25T12:56:44.297Z,4.07
2022-11-25T13:02:07.807Z,2.15
2022-11-25T13:07:16.825Z,2.25
2022-11-25T13:12:23.572Z,3.38
2022-11-25T13:17:19.817Z,3.15
2022-11-25T13:22:29.955Z,3.95
2022-11-25T13:27:33.109Z,5.75
2022-11-25T13:32:37.396Z,5.18
2022-11-25T13:37:40.142Z,3.20
2022-11-25T13:42:33.752Z,3.87
2022-11-25T13:47:36.769Z,6.90
2022-11-25T13:52:38.189Z,4.17
2022-11-25T13:57:34.877Z,7.23
2022-11-25T14:02:46.291Z,10.10
2022-11-25T14:07:48.524Z,12.60
2022-11-25T14:13:04.192Z,7.30
2022-11-25T14:19:03.176Z,6.33
2022-11-25T14:24:06.410Z,10.63
2022-11-25T14:29:03.926Z,6.57
2022-11-25T14:34:05.115Z,12.93
2022-11-25T14:39:01.826Z,14.53
2022-11-25T14:43:59.785Z,14.63
2022-11-25T14:48:59.950Z,10.47
2022-11-25T14:53:54.726Z,30.90
2022-11-25T14:58:50.554Z,18.90
2022-11-25T15:03:44.496Z,17.07
2022-11-25T15:08:45.582Z,19.03
2022-11-25T15:13:42.367Z,19.90
2022-11-25T15:18:39.404Z,11.83
2022-11-25T15:23:36.455Z,15.70
2022-11-25T15:28:37.494Z,8.47
2022-11-25T15:33:32.221Z,8.57
2022-11-25T15:38:43.671Z,5.80
2022-11-25T15:43:42.305Z,10.60
2022-11-25T15:48:41.261Z,18.67
2022-11-25T15:53:39.331Z,18.93
2022-11-25T15:58:33.201Z,12.93
2022-11-25T16:03:28.492Z,15.07
2022-11-25T16:08:36.602Z,14.47
2022-11-25T16:13:36.688Z,15.07
2022-11-25T16:18:40.926Z,16.73
2022-11-25T16:23:36.801Z,12.10
2022-11-25T16:28:31.600Z,14.93
2022-11-25T16:33:26.069Z,16.87
2022-11-25T16:38:21.338Z,16.40
2022-11-25T16:43:21.558Z,16.20
2022-11-25T16:48:17.957Z,12.87
2022-11-25T16:53:11.993Z,14.77
2022-11-25T16:58:11.925Z,19.60
2022-11-25T17:03:10.922Z,16.00
2022-11-25T17:08:05.124Z,16.97
2022-11-25T17:12:58.937Z,19.77
2022-11-25T17:17:53.941Z,24.20
2022-11-25T17:22:47.430Z,29.40
